Airfield :







YOU CAN JOIN US ON...

 
LOGIN :

Register | Disclaimer

   EN    FR    IT 

 









Legend :    VFR   Marginal VFR   IFR   Intensive IFR   Very Intensive IFR
Visi :
Ceiling :
>= 8 km
>= 3000ft
5 to 8 km
1000 to 3000 ft
1500m to 5 km
500 to 1000 ft
800 to 1500m
200 to 500 ft
< 800m
< 200 ft
Symbols :   Thunderstorms  Fog  Heavy snow  Heavy precipitations  Wind > 20 kt






- Airport Elevation : 180 ft
- IATA code : YZV


CYZV - Sept-Iles

CURRENT METAR :
  • 260100Z VRB02KT 30SM BKN100 OVC200 12/03 A2996 RMK AC7CI1 SLP150

EXPIRED METARs :
  • 260025Z 07006KT 30SM FEW060 BKN100 OVC200 12/04 A2996 RMK SC2AC5CC1 SLP149
  • 260000Z 05007KT 30SM -RA FEW060 BKN120 OVC200 12/04 A2996 RMK SC2AC4CC2 SLP149
  • 252300Z 08005KT 30SM BKN120 BKN200 14/04 A2996 RMK AC5CC2 SLP149

TAF TAF CYZV
Valid from the 26 at 00:00 until the 27 at 00:00 UTC


252338Z 2600/2624 12008KT P6SM BKN120
BECMG 2600/2602 VRB03KT
FM260600 VRB03KT P6SM OVC030
BECMG 2610/2612 21008KT
FM261400 22012KT P6SM BKN030
FM261600 30010KT P6SM -SHRA OVC040
FM262000 32012KT P6SM FEW040 RMK NXT FCST BY 260600Z
CZUL FIR / North America



MET'MAP, your aeronautical weather chart ! - Copyright ORBIFLY December 2007 - Disclaimer

ORBIFLY MET'MAP TEAM :

Programming & Development : Alexandra Zaïnal
Concept & original design : Baudouin d'Aumeries
Assistance for programming : Marc-Olivier Méhu
Technical & hardware support : Manuel Goepfert

Contact : metmap@orbifly.com




SOURCES & CREDITS :

   NOAA